createdAt,value
2024-02-23T00:02:01.515Z,0.70
2024-02-23T00:04:31.601Z,0.80
2024-02-23T00:07:04.360Z,0.77
2024-02-23T00:09:34.345Z,1.03
2024-02-23T00:12:05.490Z,0.87
2024-02-23T00:14:37.698Z,1.07
2024-02-23T00:17:09.428Z,1.10
2024-02-23T00:19:39.419Z,0.97
2024-02-23T00:22:13.432Z,0.80
2024-02-23T00:24:43.430Z,1.30
2024-02-23T00:27:13.418Z,0.93
2024-02-23T00:29:45.646Z,1.43
2024-02-23T00:32:15.683Z,0.83
2024-02-23T00:34:45.757Z,1.30
2024-02-23T00:37:18.304Z,1.70
2024-02-23T00:39:48.182Z,1.63
2024-02-23T00:42:18.132Z,1.20
2024-02-23T00:44:48.672Z,1.37
2024-02-23T00:47:18.785Z,0.90
2024-02-23T00:49:48.746Z,0.90
2024-02-23T00:52:21.555Z,1.23
2024-02-23T00:54:51.488Z,1.30
2024-02-23T00:57:28.744Z,0.90
2024-02-23T00:59:58.861Z,0.90
2024-02-23T01:02:29.006Z,0.90
2024-02-23T01:05:00.248Z,0.80
2024-02-23T01:07:33.972Z,0.80
2024-02-23T01:10:05.132Z,0.93
2024-02-23T01:12:35.038Z,2.23
2024-02-23T01:15:06.291Z,1.00
2024-02-23T01:17:36.526Z,0.90
2024-02-23T01:20:06.918Z,1.10
2024-02-23T01:22:39.764Z,0.90
2024-02-23T01:25:10.185Z,1.30
2024-02-23T01:27:41.373Z,0.90
2024-02-23T01:30:12.116Z,0.90
2024-02-23T01:32:43.483Z,1.37
2024-02-23T01:35:13.646Z,1.00
2024-02-23T01:37:46.337Z,1.60
2024-02-23T01:40:16.545Z,1.00
2024-02-23T01:42:46.460Z,0.80
2024-02-23T01:45:16.652Z,1.17
2024-02-23T01:47:46.704Z,1.33
2024-02-23T01:50:16.813Z,1.00
2024-02-23T01:52:49.539Z,1.00
2024-02-23T01:55:19.793Z,0.80
2024-02-23T01:57:50.747Z,1.10
2024-02-23T02:00:22.266Z,0.60
2024-02-23T02:02:57.957Z,2.07
2024-02-23T02:05:28.472Z,3.17
2024-02-23T02:08:02.760Z,0.70
2024-02-23T02:10:32.754Z,0.70
2024-02-23T02:13:07.044Z,0.77
2024-02-23T02:15:37.312Z,1.10
2024-02-23T02:18:08.503Z,1.20
2024-02-23T02:20:40.055Z,3.67
2024-02-23T02:23:12.737Z,0.77
2024-02-23T02:25:42.912Z,1.63
2024-02-23T02:28:12.813Z,0.70
2024-02-23T02:30:42.846Z,2.07
2024-02-23T02:33:12.751Z,1.33
2024-02-23T02:35:42.845Z,0.87
2024-02-23T02:38:15.908Z,3.30
2024-02-23T02:40:46.163Z,1.13
2024-02-23T02:43:16.218Z,1.30
2024-02-23T02:45:46.096Z,0.83
2024-02-23T02:48:16.091Z,0.90
2024-02-23T02:50:46.072Z,1.00
2024-02-23T02:53:18.571Z,0.90
2024-02-23T02:55:48.729Z,2.60
2024-02-23T02:58:18.739Z,1.20
2024-02-23T03:00:48.754Z,2.00
2024-02-23T03:03:18.800Z,1.97
2024-02-23T03:05:48.907Z,1.20
2024-02-23T03:08:21.636Z,1.60
2024-02-23T03:10:51.642Z,1.53
2024-02-23T03:13:21.593Z,1.30
2024-02-23T03:15:51.638Z,0.80
2024-02-23T03:18:22.395Z,1.50
2024-02-23T03:20:52.414Z,0.67
2024-02-23T03:23:25.569Z,2.20
2024-02-23T03:25:56.813Z,1.30
2024-02-23T03:28:27.393Z,1.27
2024-02-23T03:30:57.732Z,0.73
2024-02-23T03:33:28.218Z,1.20
2024-02-23T03:35:58.214Z,1.60
2024-02-23T03:38:32.875Z,0.93
2024-02-23T03:41:03.145Z,0.80
2024-02-23T03:43:34.570Z,0.70
2024-02-23T03:46:04.938Z,0.50
2024-02-23T03:48:35.773Z,1.30
2024-02-23T03:51:07.308Z,1.93
2024-02-23T03:53:39.889Z,1.13
2024-02-23T03:56:10.251Z,1.03
2024-02-23T03:58:40.225Z,1.10
2024-02-23T04:01:11.158Z,1.33
2024-02-23T04:03:42.056Z,1.10
2024-02-23T04:06:12.448Z,1.10
2024-02-23T04:08:46.438Z,1.30
2024-02-23T04:11:18.093Z,1.30
2024-02-23T04:13:50.145Z,1.30
2024-02-23T04:16:21.553Z,0.90
2024-02-23T04:18:51.610Z,0.80
2024-02-23T04:21:21.678Z,3.43
2024-02-23T04:23:54.299Z,2.43
2024-02-23T04:26:26.056Z,1.67
2024-02-23T04:28:56.118Z,0.80
2024-02-23T04:31:27.899Z,0.80
2024-02-23T04:33:57.829Z,1.20
2024-02-23T04:36:27.800Z,0.80
2024-02-23T04:39:00.357Z,3.83
2024-02-23T04:41:30.414Z,2.07
2024-02-23T04:44:03.092Z,2.43
2024-02-23T04:46:35.801Z,1.20
2024-02-23T04:49:05.923Z,0.73
2024-02-23T04:51:36.031Z,2.77
2024-02-23T04:54:08.905Z,1.00
2024-02-23T04:56:40.187Z,3.00
2024-02-23T04:59:10.345Z,1.27
2024-02-23T05:01:40.963Z,0.70
2024-02-23T05:04:10.956Z,1.17
2024-02-23T05:06:41.009Z,1.20
2024-02-23T05:09:13.860Z,1.63
2024-02-23T05:11:44.580Z,0.80
2024-02-23T05:14:14.622Z,1.07
2024-02-23T05:16:44.623Z,3.67
2024-02-23T05:19:14.574Z,2.10
2024-02-23T05:21:44.548Z,4.33
2024-02-23T05:24:17.294Z,1.30
2024-02-23T05:26:47.993Z,1.33
2024-02-23T05:29:20.852Z,2.70
2024-02-23T05:31:52.182Z,1.00
2024-02-23T05:34:22.721Z,2.60
2024-02-23T05:36:53.289Z,1.10
2024-02-23T05:39:25.939Z,1.13
2024-02-23T05:41:55.888Z,3.40
2024-02-23T05:44:25.897Z,2.17
2024-02-23T05:46:55.913Z,3.30
2024-02-23T05:49:25.912Z,8.00
2024-02-23T05:51:56.533Z,3.80
2024-02-23T05:54:29.139Z,1.90
2024-02-23T05:56:59.120Z,1.77
2024-02-23T05:59:29.332Z,1.67
2024-02-23T06:01:59.786Z,2.10
2024-02-23T06:04:30.239Z,2.80
2024-02-23T06:07:00.419Z,1.40
2024-02-23T06:09:33.165Z,1.77
2024-02-23T06:12:04.463Z,1.83
2024-02-23T06:14:34.565Z,2.93
2024-02-23T06:17:08.212Z,2.40
2024-02-23T06:19:38.242Z,2.50
2024-02-23T06:22:09.759Z,1.90
2024-02-23T06:24:42.336Z,2.47
2024-02-23T06:27:13.102Z,1.87
2024-02-23T06:29:43.240Z,1.67
2024-02-23T06:32:13.340Z,1.93
2024-02-23T06:34:43.299Z,2.20
2024-02-23T06:37:13.791Z,3.07
2024-02-23T06:39:51.045Z,2.10
2024-02-23T06:42:20.971Z,2.00
2024-02-23T06:44:51.259Z,4.03
2024-02-23T06:47:21.202Z,2.40
2024-02-23T06:49:51.138Z,2.50
2024-02-23T06:52:21.156Z,1.77
2024-02-23T06:54:53.653Z,2.80
2024-02-23T06:57:25.020Z,2.37
2024-02-23T06:59:54.973Z,3.50
2024-02-23T07:02:24.995Z,2.77
2024-02-23T07:04:56.111Z,4.43
2024-02-23T07:07:28.865Z,1.83
2024-02-23T07:10:02.287Z,2.70
2024-02-23T07:12:32.383Z,1.97
2024-02-23T07:15:03.225Z,2.30
2024-02-23T07:17:33.796Z,2.80
2024-02-23T07:20:07.293Z,4.27
2024-02-23T07:22:37.890Z,2.73
2024-02-23T07:25:10.980Z,4.70
2024-02-23T07:27:41.276Z,2.20
2024-02-23T07:30:11.936Z,2.23
2024-02-23T07:32:42.316Z,3.70
2024-02-23T07:35:13.414Z,2.43
2024-02-23T07:37:43.518Z,4.47
2024-02-23T07:40:18.268Z,2.20
2024-02-23T07:42:50.382Z,3.27
2024-02-23T07:45:20.936Z,4.63
2024-02-23T07:47:51.217Z,2.27
2024-02-23T07:50:21.864Z,3.30
2024-02-23T07:52:51.859Z,6.17
2024-02-23T07:55:24.421Z,4.37
2024-02-23T07:57:54.325Z,1.97
2024-02-23T08:00:26.567Z,3.70
2024-02-23T08:02:58.231Z,3.70
2024-02-23T08:05:28.192Z,3.53
2024-02-23T08:07:58.906Z,3.50
2024-02-23T08:10:31.498Z,6.60
2024-02-23T08:13:01.796Z,2.83
2024-02-23T08:15:31.860Z,2.60
2024-02-23T08:18:01.935Z,3.20
2024-02-23T08:20:31.947Z,3.23
2024-02-23T08:23:06.154Z,3.80
2024-02-23T08:25:40.434Z,3.83
2024-02-23T08:28:11.252Z,3.40
2024-02-23T08:30:41.248Z,6.20
2024-02-23T08:33:11.408Z,3.97
2024-02-23T08:35:41.523Z,3.17
2024-02-23T08:38:11.673Z,2.47
2024-02-23T08:40:46.542Z,2.03
2024-02-23T08:43:17.649Z,3.50
2024-02-23T08:45:47.623Z,2.70
2024-02-23T08:48:18.124Z,2.30
2024-02-23T08:50:48.275Z,5.53
2024-02-23T08:53:20.458Z,1.50
2024-02-23T08:55:53.959Z,2.23
2024-02-23T08:58:23.943Z,2.63
2024-02-23T09:00:53.959Z,2.20
2024-02-23T09:03:23.924Z,1.70
2024-02-23T09:05:54.300Z,1.67
2024-02-23T09:08:24.389Z,2.10
2024-02-23T09:10:57.125Z,2.20
2024-02-23T09:13:27.954Z,1.63
2024-02-23T09:15:58.488Z,1.83
2024-02-23T09:18:28.551Z,2.90
2024-02-23T09:20:55.973Z,3.40
2024-02-23T09:23:25.937Z,2.33
2024-02-23T09:25:58.690Z,1.67
2024-02-23T09:28:29.269Z,1.40
2024-02-23T09:30:59.450Z,3.47
2024-02-23T09:33:29.445Z,2.00
2024-02-23T09:35:59.692Z,1.40
2024-02-23T09:38:29.729Z,2.67
2024-02-23T09:41:02.460Z,4.07
2024-02-23T09:43:33.866Z,3.67
2024-02-23T09:46:04.221Z,2.17
2024-02-23T09:48:38.112Z,2.17
2024-02-23T09:51:10.025Z,1.50
2024-02-23T09:53:41.326Z,2.90
2024-02-23T09:56:18.782Z,1.87
2024-02-23T09:58:50.772Z,2.30
2024-02-23T10:01:22.426Z,2.03
2024-02-23T10:03:52.405Z,2.60
2024-02-23T10:06:22.433Z,2.73
2024-02-23T10:08:52.433Z,2.10
2024-02-23T10:11:25.383Z,2.40
2024-02-23T10:13:56.039Z,3.40
2024-02-23T10:16:26.709Z,3.03
2024-02-23T10:18:56.691Z,3.90
2024-02-23T10:21:26.887Z,3.03
2024-02-23T10:23:56.979Z,3.10
2024-02-23T10:26:30.633Z,3.10
2024-02-23T10:29:00.827Z,2.97
2024-02-23T10:31:31.358Z,2.80
2024-02-23T10:34:01.337Z,2.37
2024-02-23T10:36:32.252Z,2.90
2024-02-23T10:39:06.014Z,2.97
2024-02-23T10:41:39.652Z,2.20
2024-02-23T10:44:09.787Z,3.93
2024-02-23T10:46:42.267Z,3.00
2024-02-23T10:49:12.397Z,2.80
2024-02-23T10:51:43.752Z,2.60
2024-02-23T10:54:14.171Z,2.97
2024-02-23T10:56:47.254Z,6.47
2024-02-23T10:59:19.810Z,4.43
2024-02-23T11:01:52.182Z,4.10
2024-02-23T11:04:23.631Z,2.80
2024-02-23T11:06:54.478Z,3.30
2024-02-23T11:09:25.156Z,4.30
2024-02-23T11:12:00.166Z,3.00
2024-02-23T11:14:34.391Z,3.50
2024-02-23T11:17:04.951Z,4.40
2024-02-23T11:19:38.845Z,3.80
2024-02-23T11:22:16.358Z,3.40
2024-02-23T11:24:55.633Z,4.23
2024-02-23T11:27:28.608Z,3.20
2024-02-23T11:30:03.122Z,4.33
2024-02-23T11:32:40.927Z,4.23
2024-02-23T11:35:11.967Z,4.37
2024-02-23T11:37:48.429Z,2.90
2024-02-23T11:40:18.475Z,2.60
2024-02-23T11:42:51.915Z,3.00
2024-02-23T11:45:21.866Z,7.10
2024-02-23T11:47:52.045Z,2.80
2024-02-23T11:50:23.490Z,4.13
2024-02-23T11:52:53.445Z,3.50
2024-02-23T11:55:24.958Z,4.03
2024-02-23T11:58:02.003Z,2.90
2024-02-23T12:00:38.652Z,3.60
2024-02-23T12:03:08.896Z,3.37
2024-02-23T12:05:38.954Z,2.90
2024-02-23T12:08:09.303Z,2.80
2024-02-23T12:10:39.328Z,2.30
2024-02-23T12:13:12.281Z,3.50
2024-02-23T12:15:42.953Z,3.47
2024-02-23T12:18:16.381Z,2.43
2024-02-23T12:20:46.926Z,5.40
2024-02-23T12:23:16.979Z,3.53
2024-02-23T12:25:56.219Z,2.10
2024-02-23T12:28:29.134Z,2.80
2024-02-23T12:31:03.181Z,2.83
2024-02-23T12:33:34.146Z,4.67
2024-02-23T12:36:05.860Z,2.87
2024-02-23T12:38:36.037Z,2.13
2024-02-23T12:41:06.788Z,2.70
2024-02-23T12:43:41.446Z,1.90
2024-02-23T12:46:15.792Z,2.90
2024-02-23T12:48:48.842Z,3.17
2024-02-23T12:51:18.900Z,3.07
2024-02-23T12:53:49.103Z,2.17
2024-02-23T12:56:19.757Z,4.70
2024-02-23T12:58:52.991Z,2.53
2024-02-23T13:01:23.061Z,2.47
2024-02-23T13:03:53.642Z,2.93
2024-02-23T13:06:23.750Z,2.70
2024-02-23T13:08:54.110Z,2.93
2024-02-23T13:11:24.200Z,2.60
2024-02-23T13:13:56.925Z,3.80
2024-02-23T13:16:29.418Z,3.33
2024-02-23T13:18:59.562Z,2.33
2024-02-23T13:21:30.528Z,2.67
2024-02-23T13:24:00.544Z,2.77
2024-02-23T13:26:30.562Z,3.70
2024-02-23T13:29:03.157Z,2.73
2024-02-23T13:31:33.284Z,3.37
2024-02-23T13:34:03.414Z,3.20
2024-02-23T13:36:33.522Z,4.43
2024-02-23T13:39:03.936Z,2.43
2024-02-23T13:41:34.088Z,4.27
2024-02-23T13:44:06.779Z,3.57
2024-02-23T13:46:39.555Z,3.87
2024-02-23T13:49:11.206Z,3.20
2024-02-23T13:51:41.373Z,5.77
2024-02-23T13:54:11.355Z,4.20
2024-02-23T13:56:41.522Z,5.53
2024-02-23T13:59:14.201Z,4.37
2024-02-23T14:01:45.105Z,3.43
2024-02-23T14:04:15.213Z,4.33
2024-02-23T14:06:45.380Z,3.50
2024-02-23T14:09:15.363Z,4.57
2024-02-23T14:11:46.551Z,5.90
2024-02-23T14:14:21.573Z,3.97
2024-02-23T14:16:51.536Z,5.07
2024-02-23T14:19:24.600Z,4.67
2024-02-23T14:21:57.859Z,3.73
2024-02-23T14:24:28.038Z,3.83
2024-02-23T14:26:57.995Z,4.40
2024-02-23T14:29:31.261Z,5.33
2024-02-23T14:32:03.690Z,4.43
2024-02-23T14:34:34.759Z,5.87
2024-02-23T14:37:04.761Z,4.30
2024-02-23T14:39:34.850Z,6.73
2024-02-23T14:42:04.939Z,4.23
2024-02-23T14:44:37.889Z,4.17
2024-02-23T14:47:08.662Z,6.17
2024-02-23T14:49:38.684Z,4.00
2024-02-23T14:52:09.131Z,4.57
2024-02-23T14:54:39.713Z,4.10
2024-02-23T14:57:09.812Z,4.50
2024-02-23T14:59:48.006Z,8.03
2024-02-23T15:02:25.722Z,6.03
2024-02-23T15:04:55.879Z,4.53
2024-02-23T15:07:26.097Z,5.40
2024-02-23T15:09:56.177Z,4.43
2024-02-23T15:12:29.331Z,7.37
2024-02-23T15:15:02.150Z,8.17
2024-02-23T15:17:35.534Z,6.90
2024-02-23T15:20:06.109Z,7.50
2024-02-23T15:22:43.545Z,7.60
2024-02-23T15:25:13.824Z,5.33
2024-02-23T15:27:43.809Z,5.20
2024-02-23T15:30:17.175Z,5.20
2024-02-23T15:32:49.584Z,6.80
2024-02-23T15:35:19.922Z,6.70
2024-02-23T15:37:50.334Z,5.90
2024-02-23T15:40:20.656Z,5.60
2024-02-23T15:42:51.108Z,5.77
2024-02-23T15:45:23.896Z,5.10
2024-02-23T15:47:53.986Z,7.50
2024-02-23T15:50:36.991Z,7.90
2024-02-23T15:53:14.542Z,8.20
2024-02-23T15:55:44.621Z,6.20
2024-02-23T15:58:17.456Z,7.20
2024-02-23T16:00:50.482Z,6.17
2024-02-23T16:03:20.732Z,5.50
2024-02-23T16:05:51.187Z,6.60
2024-02-23T16:08:23.102Z,5.70
2024-02-23T16:10:57.646Z,5.13
2024-02-23T16:13:28.107Z,7.53
2024-02-23T16:16:00.714Z,6.80
2024-02-23T16:18:30.749Z,7.90
2024-02-23T16:21:01.533Z,8.30
2024-02-23T16:23:33.040Z,6.87
2024-02-23T16:26:03.249Z,6.00
2024-02-23T16:28:33.554Z,8.43
2024-02-23T16:31:06.611Z,5.87
2024-02-23T16:33:37.001Z,7.30
2024-02-23T16:36:08.811Z,7.20
2024-02-23T16:38:41.692Z,7.57
2024-02-23T16:41:12.217Z,6.07
2024-02-23T16:43:43.281Z,7.13
2024-02-23T16:46:16.377Z,5.80
2024-02-23T16:48:46.458Z,6.27
2024-02-23T16:51:16.541Z,7.30
2024-02-23T16:53:46.633Z,7.37
2024-02-23T16:56:16.741Z,7.97
2024-02-23T16:58:47.261Z,7.50
2024-02-23T17:01:20.538Z,5.97
2024-02-23T17:03:50.703Z,9.40
2024-02-23T17:06:20.849Z,6.90
2024-02-23T17:08:54.242Z,6.40
2024-02-23T17:11:24.288Z,5.47
2024-02-23T17:13:57.133Z,6.93
2024-02-23T17:16:30.126Z,6.90
2024-02-23T17:19:01.505Z,5.93
2024-02-23T17:21:31.529Z,9.23
2024-02-23T17:24:01.605Z,6.07
2024-02-23T17:26:31.794Z,4.93
2024-02-23T17:29:01.795Z,7.30
2024-02-23T17:31:34.353Z,5.60
2024-02-23T17:34:04.900Z,7.07
2024-02-23T17:36:34.882Z,8.07
2024-02-23T17:39:04.932Z,6.57
2024-02-23T17:41:34.919Z,7.00
2024-02-23T17:44:04.918Z,8.53
2024-02-23T17:46:37.695Z,7.27
2024-02-23T17:49:08.325Z,14.07
2024-02-23T17:51:38.756Z,6.57
2024-02-23T17:54:08.731Z,7.00
2024-02-23T17:56:38.742Z,7.07
2024-02-23T17:59:09.267Z,6.50
2024-02-23T18:01:42.027Z,5.00
2024-02-23T18:04:12.948Z,8.80
2024-02-23T18:06:43.008Z,6.67
2024-02-23T18:09:13.157Z,10.20
2024-02-23T18:11:43.401Z,6.90
2024-02-23T18:14:13.420Z,7.57
2024-02-23T18:16:46.617Z,7.70
2024-02-23T18:19:16.766Z,9.17
2024-02-23T18:21:46.766Z,6.70
2024-02-23T18:24:16.811Z,5.80
2024-02-23T18:26:46.883Z,6.53
2024-02-23T18:29:17.250Z,7.63
2024-02-23T18:31:49.918Z,6.93
2024-02-23T18:34:20.771Z,10.43
2024-02-23T18:36:50.969Z,7.43
2024-02-23T18:39:20.895Z,8.17
2024-02-23T18:41:50.925Z,10.17
2024-02-23T18:44:20.933Z,8.53
2024-02-23T18:46:53.440Z,8.20
2024-02-23T18:49:23.656Z,7.40
2024-02-23T18:51:53.669Z,6.50
2024-02-23T18:54:23.971Z,7.53
2024-02-23T18:56:54.397Z,7.40
2024-02-23T18:59:24.727Z,10.27
2024-02-23T19:01:57.383Z,10.23
2024-02-23T19:04:27.348Z,10.03
2024-02-23T19:06:57.479Z,5.93
2024-02-23T19:09:27.362Z,7.40
2024-02-23T19:11:57.564Z,9.07
2024-02-23T19:14:27.980Z,8.60
2024-02-23T19:17:01.004Z,11.23
2024-02-23T19:19:31.128Z,7.50
2024-02-23T19:22:01.134Z,7.93
2024-02-23T19:24:32.179Z,7.30
2024-02-23T19:27:02.231Z,6.83
2024-02-23T19:29:32.501Z,9.17
2024-02-23T19:32:06.280Z,9.90
2024-02-23T19:34:36.586Z,12.63
2024-02-23T19:37:06.683Z,14.00
2024-02-23T19:39:36.694Z,9.40
2024-02-23T19:42:06.874Z,11.63
2024-02-23T19:44:37.045Z,8.33
2024-02-23T19:47:10.058Z,11.37
2024-02-23T19:49:40.386Z,9.00
2024-02-23T19:52:15.065Z,9.40
2024-02-23T19:54:46.278Z,9.60
2024-02-23T19:57:18.050Z,9.77
2024-02-23T19:59:48.082Z,9.83
2024-02-23T20:02:21.033Z,9.83
2024-02-23T20:04:54.219Z,9.43
2024-02-23T20:07:24.401Z,10.83
2024-02-23T20:09:54.525Z,13.17
2024-02-23T20:12:24.751Z,9.63
2024-02-23T20:14:55.431Z,10.63
2024-02-23T20:17:29.586Z,11.47
2024-02-23T20:19:59.764Z,11.43
2024-02-23T20:22:29.825Z,9.83
2024-02-23T20:25:02.080Z,10.53
2024-02-23T20:27:32.088Z,9.47
2024-02-23T20:30:02.129Z,11.40
2024-02-23T20:32:35.863Z,10.67
2024-02-23T20:35:08.120Z,13.07
2024-02-23T20:37:39.180Z,10.83
2024-02-23T20:40:10.070Z,10.90
2024-02-23T20:42:41.638Z,12.30
2024-02-23T20:45:12.079Z,12.47
2024-02-23T20:47:44.880Z,11.20
2024-02-23T20:50:15.436Z,12.40
2024-02-23T20:52:45.463Z,13.10
2024-02-23T20:55:15.648Z,11.50
2024-02-23T20:57:45.592Z,13.43
2024-02-23T21:00:16.453Z,11.73
2024-02-23T21:02:49.065Z,16.23
2024-02-23T21:05:20.565Z,11.73
2024-02-23T21:07:50.561Z,12.23
2024-02-23T21:10:20.554Z,11.20
2024-02-23T21:12:50.506Z,15.93
2024-02-23T21:15:21.760Z,15.30
2024-02-23T21:17:54.853Z,13.33
2024-02-23T21:20:24.975Z,17.53
2024-02-23T21:22:55.878Z,21.23
2024-02-23T21:25:25.789Z,14.23
2024-02-23T21:27:55.749Z,17.40
2024-02-23T21:30:25.641Z,15.80
2024-02-23T21:32:59.582Z,16.23
2024-02-23T21:35:31.386Z,15.90
2024-02-23T21:38:01.367Z,13.47
2024-02-23T21:40:31.337Z,15.13
2024-02-23T21:43:01.199Z,15.53
2024-02-23T21:45:31.137Z,15.70
2024-02-23T21:48:03.780Z,16.53
2024-02-23T21:50:33.933Z,14.77
2024-02-23T21:53:03.972Z,15.10
2024-02-23T21:55:33.868Z,16.57
2024-02-23T21:58:03.803Z,15.30
2024-02-23T22:00:31.390Z,14.50
2024-02-23T22:03:05.932Z,20.83
2024-02-23T22:05:35.924Z,15.50
2024-02-23T22:08:05.945Z,14.67
2024-02-23T22:10:36.517Z,16.10
2024-02-23T22:13:08.114Z,19.30
2024-02-23T22:15:37.992Z,21.23
2024-02-23T22:18:10.874Z,20.67
2024-02-23T22:20:40.900Z,20.57
2024-02-23T22:23:10.934Z,17.13
2024-02-23T22:25:40.860Z,15.00
2024-02-23T22:28:10.755Z,23.60
2024-02-23T22:30:40.659Z,21.40
2024-02-23T22:33:13.246Z,13.87
2024-02-23T22:35:43.472Z,16.27
2024-02-23T22:38:13.518Z,15.53
2024-02-23T22:40:43.403Z,16.13
2024-02-23T22:43:13.377Z,11.63
2024-02-23T22:45:43.267Z,12.87
2024-02-23T22:48:16.546Z,15.70
2024-02-23T22:50:46.612Z,12.50
2024-02-23T22:53:16.646Z,15.03
2024-02-23T22:55:46.562Z,12.80
2024-02-23T22:58:16.465Z,14.17
2024-02-23T23:00:48.717Z,14.47
2024-02-23T23:03:22.750Z,13.93
2024-02-23T23:05:52.795Z,13.87
2024-02-23T23:08:22.886Z,15.10
2024-02-23T23:10:52.973Z,11.80
2024-02-23T23:13:22.880Z,11.13
2024-02-23T23:15:52.823Z,12.50
2024-02-23T23:18:25.385Z,11.47
2024-02-23T23:20:55.401Z,12.20
2024-02-23T23:23:25.388Z,10.30
2024-02-23T23:25:55.300Z,14.50
2024-02-23T23:28:25.171Z,13.43
2024-02-23T23:30:55.549Z,11.83
2024-02-23T23:33:28.257Z,12.27
2024-02-23T23:35:58.346Z,16.17
2024-02-23T23:38:28.305Z,14.13
2024-02-23T23:40:58.190Z,12.87
2024-02-23T23:43:28.085Z,14.30
2024-02-23T23:45:58.109Z,13.07
2024-02-23T23:48:33.006Z,13.33
2024-02-23T23:51:03.218Z,16.83
2024-02-23T23:53:33.223Z,12.77
2024-02-23T23:56:03.306Z,14.10
2024-02-23T23:58:33.242Z,14.10
